Terminal Aerodrome Forecast
Issued by NWS Bismarck, ND

Home | Current Version | Previous Version | Graphics & Text | Print | Product List | Glossary On
Versions: 1 2 3 4 5 6 7 8 9 10 11 12 13 14 15 16 17 18 19 20 21
000
FTUS43 KBIS 261700
TAFISN
TAF
KISN 261726Z 2618/2718 14005KT P6SM SCT035 BKN200
     FM270700 14007KT P6SM -RASN BKN015 OVC025
     FM271200 20005KT P6SM BKN025 OVC040
     FM271500 27008KT P6SM BKN050=

USA.gov is the U.S. government's official web portal to all federal, state and local government web resources and services.